»·PEaware :: WAT105 KSAN-KLAS

WAT105 :: KSAN-KLAS

FLIGHT INFORMATION

Flight Status: Arrived
Operator:
Walker Air Transport
More flights by this operator :: More flights under this callsign
Pilot: Aidan B. (29250)
Aircraft: BOEING 737-800
(B738)
More flights by this aircraft type
Origin: KSAN San Diego Intl-Lindbergh
United States
Destination: KLAS McCarran Intl
United States
More flights between these airports :: More routes between these airports
Route: PADRZ2 CHKNN/N0437F300 SEBBY/N0431F290 YELAH MISEN KEPEC6
File this flight plan on PilotEdge
Remarks: RMK / SIMBRIEF
Altitude:
(Current/Filed)
29,000ft
Speed:
(Current/Filed)
433kts
Departed: 25-Aug-20 05:29 PM
Arrived: 25-Aug-20 06:23 PM
Distance/Time
Traveled:
225nm/0:54
Distance/Time
To Go:
Arrived

Flight Plot

Page will automatically refresh every two minutes.

Flight plan parsing failed; only flown route is shown


Map Options




Map Legend


Flown Route
Filed Route
Departure Airport
Arrival Airport
Navaid (VOR, NDB)
Fix

Horizontal Profiles

Position Reports

Time Latitude Longitude Heading Altitude Ground
Speed
25-Aug-20 16:45 32.732266 -117.200135 185 23ft 0kts
25-Aug-20 16:46 32.732266 -117.200135 185 23ft 0kts
25-Aug-20 16:47 32.732266 -117.200135 185 23ft 0kts
25-Aug-20 16:48 32.732266 -117.200135 185 23ft 0kts
25-Aug-20 16:49 32.732266 -117.200135 185 23ft 0kts
25-Aug-20 16:50 32.732266 -117.200135 185 23ft 0kts
25-Aug-20 16:51 32.732266 -117.200135 185 23ft 0kts
25-Aug-20 16:52 32.732266 -117.200135 185 23ft 0kts
25-Aug-20 16:53 32.732266 -117.200135 185 23ft 0kts
25-Aug-20 16:54 32.732266 -117.200135 185 23ft 0kts
25-Aug-20 16:55 32.732266 -117.200135 185 23ft 0kts
25-Aug-20 16:56 32.732266 -117.200135 185 23ft 0kts
25-Aug-20 16:57 32.732266 -117.200135 185 23ft 0kts
25-Aug-20 16:58 32.732266 -117.200135 185 23ft 0kts
25-Aug-20 16:59 32.732266 -117.200135 185 23ft 0kts
25-Aug-20 17:00 32.732266 -117.200135 185 23ft 0kts
25-Aug-20 17:01 32.732266 -117.200135 185 23ft 0kts
25-Aug-20 17:02 32.732266 -117.200135 185 23ft 0kts
25-Aug-20 17:03 32.732266 -117.200135 185 23ft 0kts
25-Aug-20 17:04 32.732266 -117.200135 185 23ft 0kts
25-Aug-20 17:05 32.732266 -117.200135 185 23ft 0kts
25-Aug-20 17:06 32.732266 -117.200135 185 23ft 0kts
25-Aug-20 17:07 32.732266 -117.200135 185 23ft 0kts
25-Aug-20 17:08 32.732266 -117.200135 185 23ft 0kts
25-Aug-20 17:09 32.732266 -117.200135 185 23ft 0kts
25-Aug-20 17:10 32.732266 -117.200135 185 23ft 0kts
25-Aug-20 17:11 32.732266 -117.200135 185 23ft 0kts
25-Aug-20 17:12 32.732266 -117.200135 185 23ft 0kts
25-Aug-20 17:13 32.732266 -117.200135 185 23ft 0kts
25-Aug-20 17:14 32.732266 -117.200135 185 23ft 0kts
25-Aug-20 17:15 32.732965 -117.199959 192 23ft 2kts
25-Aug-20 17:16 32.733172 -117.199903 192 23ft 0kts
25-Aug-20 17:17 32.733172 -117.199903 192 23ft 0kts
25-Aug-20 17:18 32.733866 -117.199745 11 23ft 10kts
25-Aug-20 17:19 32.734135 -117.199675 12 23ft 0kts
25-Aug-20 17:20 32.734136 -117.199675 12 23ft 0kts
25-Aug-20 17:21 32.734250 -117.196776 104 23ft 19kts
25-Aug-20 17:22 32.732740 -117.190656 107 23ft 17kts
25-Aug-20 17:23 32.731508 -117.185480 105 23ft 17kts
25-Aug-20 17:24 32.730209 -117.180116 106 23ft 16kts
25-Aug-20 17:25 32.729504 -117.176850 73 23ft 0kts
25-Aug-20 17:26 32.729505 -117.176849 73 23ft 0kts
25-Aug-20 17:27 32.730222 -117.176002 300 23ft 14kts
25-Aug-20 17:28 32.736805 -117.202867 287 756ft 167kts
25-Aug-20 17:29 32.764019 -117.255265 303 3094ft 228kts
25-Aug-20 17:30 32.802694 -117.324120 304 5158ft 275kts
25-Aug-20 17:31 32.851041 -117.398140 306 8131ft 294kts
25-Aug-20 17:32 32.901470 -117.476383 304 10986ft 311kts
25-Aug-20 17:33 32.959061 -117.565872 304 12907ft 355kts
25-Aug-20 17:34 33.018431 -117.658674 304 15386ft 370kts
25-Aug-20 17:35 33.084454 -117.751885 316 17668ft 388kts
25-Aug-20 17:36 33.167792 -117.835309 317 19894ft 400kts
25-Aug-20 17:37 33.253569 -117.920390 318 21929ft 411kts
25-Aug-20 17:38 33.338617 -118.003190 319 23677ft 421kts
25-Aug-20 17:39 33.428280 -118.090763 317 25692ft 420kts
25-Aug-20 17:40 33.511454 -118.172637 316 27677ft 416kts
25-Aug-20 17:41 33.602073 -118.251275 328 28927ft 425kts
25-Aug-20 17:42 33.700482 -118.303388 339 28922ft 426kts
25-Aug-20 17:43 33.811263 -118.268815 45 28943ft 444kts
25-Aug-20 17:44 33.869455 -118.150930 58 28945ft 443kts
25-Aug-20 17:45 33.940869 -118.029884 55 28939ft 443kts
25-Aug-20 17:46 34.009759 -117.913120 55 28943ft 469kts
25-Aug-20 17:47 34.087343 -117.781030 55 28940ft 496kts
25-Aug-20 17:48 34.173559 -117.653361 50 28940ft 514kts
25-Aug-20 17:49 34.266020 -117.518248 50 28940ft 524kts
25-Aug-20 17:50 34.358823 -117.382251 50 28939ft 524kts
25-Aug-20 17:51 34.451549 -117.245561 51 28939ft 524kts
25-Aug-20 17:52 34.543850 -117.108734 51 28939ft 524kts
25-Aug-20 17:53 34.635915 -116.971706 51 28940ft 524kts
25-Aug-20 17:54 34.728147 -116.834310 51 28940ft 524kts
25-Aug-20 17:55 34.815048 -116.703618 51 28931ft 464kts
25-Aug-20 17:56 34.902974 -116.596722 37 27659ft 440kts
25-Aug-20 17:57 34.997868 -116.505635 38 25911ft 423kts
25-Aug-20 17:58 35.086530 -116.419307 38 24235ft 395kts
25-Aug-20 17:59 35.164294 -116.327549 46 22770ft 385kts
25-Aug-20 18:00 35.237668 -116.234247 46 21345ft 375kts
25-Aug-20 18:01 35.309565 -116.143432 46 19965ft 368kts
25-Aug-20 18:02 35.380493 -116.054353 46 18607ft 360kts
25-Aug-20 18:03 35.449671 -115.967117 46 17472ft 354kts
25-Aug-20 18:04 35.517953 -115.880973 46 16203ft 354kts
25-Aug-20 18:05 35.585397 -115.795063 46 14918ft 346kts
25-Aug-20 18:06 35.652854 -115.708994 45 13629ft 342kts
25-Aug-20 18:07 35.716637 -115.627495 45 13208ft 329kts
25-Aug-20 18:08 35.792704 -115.572172 3 13222ft 324kts
25-Aug-20 18:10 35.882599 -115.568475 359 13224ft 324kts
25-Aug-20 18:11 35.970611 -115.552100 32 13202ft 330kts
25-Aug-20 18:12 36.005155 -115.452051 72 12031ft 318kts
25-Aug-20 18:13 36.029344 -115.352314 92 11002ft 297kts
25-Aug-20 18:14 36.022665 -115.258253 97 9871ft 305kts
25-Aug-20 18:15 36.015463 -115.156876 96 8853ft 286kts
25-Aug-20 18:16 36.009264 -115.064212 95 8210ft 254kts
25-Aug-20 18:17 36.006199 -114.977331 91 7803ft 257kts
25-Aug-20 18:18 36.050309 -114.919403 1 5690ft 252kts
25-Aug-20 18:19 36.074595 -114.976958 259 3884ft 212kts
25-Aug-20 18:20 36.073927 -115.042699 267 3436ft 170kts
25-Aug-20 18:21 36.073793 -115.093684 266 2701ft 138kts
25-Aug-20 18:22 36.073665 -115.139103 269 2189ft 82kts
25-Aug-20 18:23 36.074751 -115.150583 303 2189ft 0kts
25-Aug-20 18:24 36.074813 -115.150688 307 2189ft 6kts
25-Aug-20 18:25 36.077844 -115.152805 333 2189ft 12kts
25-Aug-20 18:25 36.078756 -115.151020 91 2189ft 16kts
25-Aug-20 18:27 36.079880 -115.147057 60 2189ft 0kts
25-Aug-20 18:28 36.079892 -115.147033 58 2189ft 0kts
25-Aug-20 18:28 36.079892 -115.147033 58 2189ft 0kts
25-Aug-20 18:30 36.079892 -115.147033 58 2189ft 0kts
25-Aug-20 18:31 36.079892 -115.147033 58 2189ft 0kts
25-Aug-20 18:31 36.079892 -115.147033 58 2189ft 0kts
25-Aug-20 18:32 36.079892 -115.147033 58 2189ft 0kts
25-Aug-20 18:33 36.079892 -115.147033 58 2189ft 0kts
25-Aug-20 18:34 36.079892 -115.147033 58 2189ft 0kts
25-Aug-20 18:35 36.079892 -115.147033 58 2189ft 0kts
25-Aug-20 18:36 36.079892 -115.147033 58 2189ft 0kts

Navigation Log

Ident Type
Flight plan parsing failed, navigation log unavailable